sensor_id;sensor_type;location;lat;lon;timestamp;pressure;altitude;pressure_sealevel;temperature;humidity
50384;BME280;36301;48.310;12.786;2023-12-20T00:01:03;96208.03;;;3.29;98.81
50384;BME280;36301;48.310;12.786;2023-12-20T00:03:29;96207.41;;;3.41;97.45
50384;BME280;36301;48.310;12.786;2023-12-20T00:06:08;96203.38;;;3.44;97.21
50384;BME280;36301;48.310;12.786;2023-12-20T00:08:34;96206.91;;;3.56;96.53
50384;BME280;36301;48.310;12.786;2023-12-20T00:11:01;96189.38;;;3.48;95.60
50384;BME280;36301;48.310;12.786;2023-12-20T00:13:27;96191.03;;;3.61;95.95
50384;BME280;36301;48.310;12.786;2023-12-20T00:15:54;96184.19;;;3.69;94.83
50384;BME280;36301;48.310;12.786;2023-12-20T00:18:20;96186.53;;;3.71;94.69
50384;BME280;36301;48.310;12.786;2023-12-20T00:20:47;96180.34;;;3.75;94.16
50384;BME280;36301;48.310;12.786;2023-12-20T00:23:14;96173.91;;;3.94;91.69
50384;BME280;36301;48.310;12.786;2023-12-20T00:25:40;96167.50;;;3.82;92.91
50384;BME280;36301;48.310;12.786;2023-12-20T00:28:07;96173.59;;;3.66;94.58
50384;BME280;36301;48.310;12.786;2023-12-20T00:30:33;96171.56;;;3.33;98.62
50384;BME280;36301;48.310;12.786;2023-12-20T00:33:00;96175.09;;;3.37;100.00
50384;BME280;36301;48.310;12.786;2023-12-20T00:35:27;96172.50;;;3.28;100.00
50384;BME280;36301;48.310;12.786;2023-12-20T00:37:53;96168.94;;;3.33;100.00
50384;BME280;36301;48.310;12.786;2023-12-20T00:40:20;96172.03;;;3.35;100.00
50384;BME280;36301;48.310;12.786;2023-12-20T00:42:47;96184.66;;;3.24;100.00
50384;BME280;36301;48.310;12.786;2023-12-20T00:45:14;96192.34;;;3.29;100.00
50384;BME280;36301;48.310;12.786;2023-12-20T00:47:41;96187.66;;;3.52;99.08
50384;BME280;36301;48.310;12.786;2023-12-20T00:50:08;96196.66;;;3.72;97.49
50384;BME280;36301;48.310;12.786;2023-12-20T00:52:35;96199.53;;;3.50;98.92
50384;BME280;36301;48.310;12.786;2023-12-20T00:55:03;96189.22;;;3.45;99.57
50384;BME280;36301;48.310;12.786;2023-12-20T00:57:30;96207.06;;;3.60;99.21
50384;BME280;36301;48.310;12.786;2023-12-20T00:59:58;96199.31;;;3.63;99.48
50384;BME280;36301;48.310;12.786;2023-12-20T01:02:24;96191.97;;;3.48;100.00
50384;BME280;36301;48.310;12.786;2023-12-20T01:04:51;96193.47;;;3.67;99.74
50384;BME280;36301;48.310;12.786;2023-12-20T01:07:19;96179.00;;;3.60;99.04
50384;BME280;36301;48.310;12.786;2023-12-20T01:09:45;96167.81;;;3.51;99.78
50384;BME280;36301;48.310;12.786;2023-12-20T01:12:12;96165.19;;;3.51;100.00
50384;BME280;36301;48.310;12.786;2023-12-20T01:14:39;96161.16;;;3.54;100.00
50384;BME280;36301;48.310;12.786;2023-12-20T01:17:06;96168.06;;;3.58;99.89
50384;BME280;36301;48.310;12.786;2023-12-20T01:19:32;96165.00;;;3.56;100.00
50384;BME280;36301;48.310;12.786;2023-12-20T01:21:59;96168.84;;;3.59;100.00
50384;BME280;36301;48.310;12.786;2023-12-20T01:24:26;96156.84;;;3.58;100.00
50384;BME280;36301;48.310;12.786;2023-12-20T01:26:52;96150.84;;;3.57;100.00
50384;BME280;36301;48.310;12.786;2023-12-20T01:29:19;96136.94;;;3.66;100.00
50384;BME280;36301;48.310;12.786;2023-12-20T01:31:45;96137.41;;;3.68;100.00
50384;BME280;36301;48.310;12.786;2023-12-20T01:34:12;96117.53;;;3.67;100.00
50384;BME280;36301;48.310;12.786;2023-12-20T01:36:39;96127.88;;;3.63;100.00
50384;BME280;36301;48.310;12.786;2023-12-20T01:39:05;96122.00;;;3.66;100.00
50384;BME280;36301;48.310;12.786;2023-12-20T01:41:49;96125.06;;;3.68;100.00
50384;BME280;36301;48.310;12.786;2023-12-20T01:44:16;96113.28;;;3.53;100.00
50384;BME280;36301;48.310;12.786;2023-12-20T01:46:42;96106.66;;;3.56;100.00
50384;BME280;36301;48.310;12.786;2023-12-20T01:49:09;96104.81;;;3.56;99.88
50384;BME280;36301;48.310;12.786;2023-12-20T01:51:36;96093.31;;;3.70;99.45
50384;BME280;36301;48.310;12.786;2023-12-20T01:54:03;96088.03;;;3.78;98.00
50384;BME280;36301;48.310;12.786;2023-12-20T01:56:31;96081.66;;;3.88;98.00
50384;BME280;36301;48.310;12.786;2023-12-20T01:58:58;96088.19;;;3.82;96.76
50384;BME280;36301;48.310;12.786;2023-12-20T02:01:27;96080.13;;;3.87;97.24
50384;BME280;36301;48.310;12.786;2023-12-20T02:03:55;96075.03;;;3.90;95.49
50384;BME280;36301;48.310;12.786;2023-12-20T02:06:23;96087.63;;;3.97;95.12
50384;BME280;36301;48.310;12.786;2023-12-20T02:08:50;96073.38;;;4.07;94.27
50384;BME280;36301;48.310;12.786;2023-12-20T02:11:17;96075.47;;;4.13;92.96
50384;BME280;36301;48.310;12.786;2023-12-20T02:13:44;96056.69;;;4.11;92.66
50384;BME280;36301;48.310;12.786;2023-12-20T02:16:10;96057.81;;;4.23;90.87
50384;BME280;36301;48.310;12.786;2023-12-20T02:18:37;96060.03;;;4.33;90.48
50384;BME280;36301;48.310;12.786;2023-12-20T02:21:05;96052.13;;;4.21;90.59
50384;BME280;36301;48.310;12.786;2023-12-20T02:23:32;96060.56;;;4.26;92.01
50384;BME280;36301;48.310;12.786;2023-12-20T02:25:58;96061.41;;;4.18;91.81
50384;BME280;36301;48.310;12.786;2023-12-20T02:28:25;96067.75;;;4.17;93.45
50384;BME280;36301;48.310;12.786;2023-12-20T02:30:51;96046.41;;;4.06;92.58
50384;BME280;36301;48.310;12.786;2023-12-20T02:33:18;96047.75;;;4.12;93.42
50384;BME280;36301;48.310;12.786;2023-12-20T02:35:45;96045.81;;;4.22;92.75
50384;BME280;36301;48.310;12.786;2023-12-20T02:38:11;96040.03;;;4.28;92.67
50384;BME280;36301;48.310;12.786;2023-12-20T02:40:38;96046.69;;;4.26;91.50
50384;BME280;36301;48.310;12.786;2023-12-20T02:43:04;96041.13;;;4.27;91.07
50384;BME280;36301;48.310;12.786;2023-12-20T02:45:31;96035.56;;;4.29;91.69
50384;BME280;36301;48.310;12.786;2023-12-20T02:47:57;96031.97;;;4.33;91.37
50384;BME280;36301;48.310;12.786;2023-12-20T02:50:24;96029.72;;;4.44;90.82
50384;BME280;36301;48.310;12.786;2023-12-20T02:52:51;96015.28;;;4.38;90.08
50384;BME280;36301;48.310;12.786;2023-12-20T02:55:17;96009.22;;;4.46;89.53
50384;BME280;36301;48.310;12.786;2023-12-20T02:57:44;96016.41;;;4.49;89.12
50384;BME280;36301;48.310;12.786;2023-12-20T03:00:11;96009.22;;;4.58;88.82
50384;BME280;36301;48.310;12.786;2023-12-20T03:02:38;95982.78;;;4.63;88.60
50384;BME280;36301;48.310;12.786;2023-12-20T03:05:05;95983.22;;;4.65;88.07
50384;BME280;36301;48.310;12.786;2023-12-20T03:07:32;95978.72;;;4.66;87.84
50384;BME280;36301;48.310;12.786;2023-12-20T03:09:59;95983.00;;;4.71;86.78
50384;BME280;36301;48.310;12.786;2023-12-20T03:12:44;95978.84;;;4.69;86.75
50384;BME280;36301;48.310;12.786;2023-12-20T03:15:11;95993.50;;;4.71;86.70
50384;BME280;36301;48.310;12.786;2023-12-20T03:17:37;95987.47;;;4.58;87.61
50384;BME280;36301;48.310;12.786;2023-12-20T03:20:05;95988.88;;;4.55;88.04
50384;BME280;36301;48.310;12.786;2023-12-20T03:22:31;95995.78;;;4.60;87.05
50384;BME280;36301;48.310;12.786;2023-12-20T03:24:58;96003.09;;;4.54;87.59
50384;BME280;36301;48.310;12.786;2023-12-20T03:27:25;96019.34;;;4.48;88.48
50384;BME280;36301;48.310;12.786;2023-12-20T03:29:51;96022.31;;;4.58;88.48
50384;BME280;36301;48.310;12.786;2023-12-20T03:32:18;96025.28;;;4.57;88.27
50384;BME280;36301;48.310;12.786;2023-12-20T03:34:44;96021.00;;;4.52;87.74
50384;BME280;36301;48.310;12.786;2023-12-20T03:37:11;96022.41;;;4.50;88.42
50384;BME280;36301;48.310;12.786;2023-12-20T03:39:37;96016.75;;;4.48;87.83
50384;BME280;36301;48.310;12.786;2023-12-20T03:42:04;96013.34;;;4.47;89.11
50384;BME280;36301;48.310;12.786;2023-12-20T03:44:31;96019.50;;;4.51;89.62
50384;BME280;36301;48.310;12.786;2023-12-20T03:46:57;96018.94;;;4.58;88.51
50384;BME280;36301;48.310;12.786;2023-12-20T03:49:24;96000.28;;;4.72;88.30
50384;BME280;36301;48.310;12.786;2023-12-20T03:51:50;96001.34;;;4.58;88.67
50384;BME280;36301;48.310;12.786;2023-12-20T03:54:17;96000.81;;;4.53;88.41
50384;BME280;36301;48.310;12.786;2023-12-20T03:56:43;96003.84;;;4.55;88.43
50384;BME280;36301;48.310;12.786;2023-12-20T03:59:10;95993.72;;;4.65;88.28
50384;BME280;36301;48.310;12.786;2023-12-20T04:01:37;96008.47;;;4.58;88.05
50384;BME280;36301;48.310;12.786;2023-12-20T04:04:03;96003.97;;;4.46;88.87
50384;BME280;36301;48.310;12.786;2023-12-20T04:06:30;96006.88;;;4.45;89.02
50384;BME280;36301;48.310;12.786;2023-12-20T04:08:57;96013.69;;;4.58;88.57
50384;BME280;36301;48.310;12.786;2023-12-20T04:11:23;96008.66;;;4.53;88.48
50384;BME280;36301;48.310;12.786;2023-12-20T04:13:50;96005.16;;;4.61;88.04
50384;BME280;36301;48.310;12.786;2023-12-20T04:16:16;96013.16;;;4.64;88.11
50384;BME280;36301;48.310;12.786;2023-12-20T04:18:43;96020.94;;;4.85;87.17
50384;BME280;36301;48.310;12.786;2023-12-20T04:21:10;96025.50;;;4.76;87.43
50384;BME280;36301;48.310;12.786;2023-12-20T04:23:37;96028.16;;;4.88;86.37
50384;BME280;36301;48.310;12.786;2023-12-20T04:26:03;96025.22;;;4.78;87.72
50384;BME280;36301;48.310;12.786;2023-12-20T04:28:30;96036.72;;;4.98;86.40
50384;BME280;36301;48.310;12.786;2023-12-20T04:30:56;96035.28;;;5.00;85.98
50384;BME280;36301;48.310;12.786;2023-12-20T04:33:23;96039.63;;;4.96;86.52
50384;BME280;36301;48.310;12.786;2023-12-20T04:35:50;96051.78;;;5.01;86.80
50384;BME280;36301;48.310;12.786;2023-12-20T04:38:17;96057.03;;;5.01;86.88
50384;BME280;36301;48.310;12.786;2023-12-20T04:40:44;96063.59;;;5.07;86.82
50384;BME280;36301;48.310;12.786;2023-12-20T04:43:11;96063.47;;;4.91;88.73
50384;BME280;36301;48.310;12.786;2023-12-20T04:45:37;96061.16;;;4.89;89.50
50384;BME280;36301;48.310;12.786;2023-12-20T04:48:04;96066.53;;;4.93;89.00
50384;BME280;36301;48.310;12.786;2023-12-20T04:50:31;96074.28;;;4.89;88.08
50384;BME280;36301;48.310;12.786;2023-12-20T04:52:57;96067.31;;;5.06;89.40
50384;BME280;36301;48.310;12.786;2023-12-20T04:55:24;96063.16;;;5.17;88.66
50384;BME280;36301;48.310;12.786;2023-12-20T04:57:50;96065.25;;;5.24;89.55
50384;BME280;36301;48.310;12.786;2023-12-20T05:00:17;96059.44;;;5.30;88.56
50384;BME280;36301;48.310;12.786;2023-12-20T05:02:44;96061.84;;;5.35;89.17
50384;BME280;36301;48.310;12.786;2023-12-20T05:05:10;96056.03;;;5.42;88.55
50384;BME280;36301;48.310;12.786;2023-12-20T05:07:37;96066.66;;;5.45;89.77
50384;BME280;36301;48.310;12.786;2023-12-20T05:10:04;96067.75;;;5.44;91.04
50384;BME280;36301;48.310;12.786;2023-12-20T05:12:31;96064.16;;;5.37;91.25
50384;BME280;36301;48.310;12.786;2023-12-20T05:14:58;96068.00;;;5.39;92.27
50384;BME280;36301;48.310;12.786;2023-12-20T05:17:24;96059.34;;;5.39;92.50
50384;BME280;36301;48.310;12.786;2023-12-20T05:19:51;96055.75;;;5.43;92.64
50384;BME280;36301;48.310;12.786;2023-12-20T05:22:19;96065.78;;;5.41;93.69
50384;BME280;36301;48.310;12.786;2023-12-20T05:24:45;96064.81;;;5.21;95.76
50384;BME280;36301;48.310;12.786;2023-12-20T05:27:12;96066.00;;;5.36;96.63
50384;BME280;36301;48.310;12.786;2023-12-20T05:29:38;96076.84;;;5.23;98.94
50384;BME280;36301;48.310;12.786;2023-12-20T05:32:05;96073.69;;;5.29;99.15
50384;BME280;36301;48.310;12.786;2023-12-20T05:34:31;96074.88;;;5.44;100.00
50384;BME280;36301;48.310;12.786;2023-12-20T05:36:58;96078.16;;;5.41;100.00
50384;BME280;36301;48.310;12.786;2023-12-20T05:39:25;96088.22;;;5.39;100.00
50384;BME280;36301;48.310;12.786;2023-12-20T05:41:52;96086.69;;;5.26;100.00
50384;BME280;36301;48.310;12.786;2023-12-20T05:44:18;96100.81;;;5.33;100.00
50384;BME280;36301;48.310;12.786;2023-12-20T05:46:45;96112.06;;;5.34;100.00
50384;BME280;36301;48.310;12.786;2023-12-20T05:49:12;96116.66;;;5.37;100.00
50384;BME280;36301;48.310;12.786;2023-12-20T05:51:38;96132.44;;;5.49;100.00
50384;BME280;36301;48.310;12.786;2023-12-20T05:54:05;96125.19;;;5.34;100.00
50384;BME280;36301;48.310;12.786;2023-12-20T05:56:31;96133.50;;;5.24;100.00
50384;BME280;36301;48.310;12.786;2023-12-20T05:58:58;96142.00;;;5.20;100.00
50384;BME280;36301;48.310;12.786;2023-12-20T06:01:25;96136.78;;;5.33;100.00
50384;BME280;36301;48.310;12.786;2023-12-20T06:03:52;96138.06;;;5.27;100.00
50384;BME280;36301;48.310;12.786;2023-12-20T06:06:18;96151.44;;;5.34;100.00
50384;BME280;36301;48.310;12.786;2023-12-20T06:08:45;96146.38;;;5.16;100.00
50384;BME280;36301;48.310;12.786;2023-12-20T06:11:12;96152.50;;;5.20;100.00
50384;BME280;36301;48.310;12.786;2023-12-20T06:13:40;96161.91;;;5.21;100.00
50384;BME280;36301;48.310;12.786;2023-12-20T06:16:07;96155.03;;;5.29;100.00
50384;BME280;36301;48.310;12.786;2023-12-20T06:18:34;96154.16;;;5.13;100.00
50384;BME280;36301;48.310;12.786;2023-12-20T06:21:00;96153.41;;;5.37;100.00
50384;BME280;36301;48.310;12.786;2023-12-20T06:23:27;96158.44;;;5.30;100.00
50384;BME280;36301;48.310;12.786;2023-12-20T06:25:54;96163.56;;;5.26;100.00
50384;BME280;36301;48.310;12.786;2023-12-20T06:28:20;96156.91;;;5.29;100.00
50384;BME280;36301;48.310;12.786;2023-12-20T06:30:47;96162.06;;;5.37;100.00
50384;BME280;36301;48.310;12.786;2023-12-20T06:33:16;96161.50;;;5.32;100.00
50384;BME280;36301;48.310;12.786;2023-12-20T06:35:42;96159.75;;;5.36;100.00
50384;BME280;36301;48.310;12.786;2023-12-20T06:38:09;96163.47;;;5.35;100.00
50384;BME280;36301;48.310;12.786;2023-12-20T06:40:35;96159.41;;;5.25;100.00
50384;BME280;36301;48.310;12.786;2023-12-20T06:43:02;96161.56;;;5.11;100.00
50384;BME280;36301;48.310;12.786;2023-12-20T06:45:41;96155.34;;;5.15;100.00
50384;BME280;36301;48.310;12.786;2023-12-20T06:48:08;96168.13;;;5.17;100.00
50384;BME280;36301;48.310;12.786;2023-12-20T06:50:37;96163.19;;;5.03;100.00
50384;BME280;36301;48.310;12.786;2023-12-20T06:53:06;96175.44;;;4.99;100.00
50384;BME280;36301;48.310;12.786;2023-12-20T06:55:35;96168.47;;;5.15;100.00
50384;BME280;36301;48.310;12.786;2023-12-20T06:58:02;96171.56;;;5.17;100.00
50384;BME280;36301;48.310;12.786;2023-12-20T07:00:29;96178.03;;;5.32;100.00
50384;BME280;36301;48.310;12.786;2023-12-20T07:02:56;96180.31;;;5.34;100.00
50384;BME280;36301;48.310;12.786;2023-12-20T07:05:22;96182.28;;;5.25;100.00
50384;BME280;36301;48.310;12.786;2023-12-20T07:07:49;96191.47;;;5.31;100.00
50384;BME280;36301;48.310;12.786;2023-12-20T07:10:16;96197.59;;;5.35;100.00
50384;BME280;36301;48.310;12.786;2023-12-20T07:12:43;96191.66;;;5.26;100.00
50384;BME280;36301;48.310;12.786;2023-12-20T07:15:10;96194.78;;;5.40;100.00
50384;BME280;36301;48.310;12.786;2023-12-20T07:17:37;96200.44;;;5.30;100.00
50384;BME280;36301;48.310;12.786;2023-12-20T07:20:04;96204.50;;;5.39;100.00
50384;BME280;36301;48.310;12.786;2023-12-20T07:22:33;96199.13;;;5.36;100.00
50384;BME280;36301;48.310;12.786;2023-12-20T07:25:00;96214.47;;;5.46;100.00
50384;BME280;36301;48.310;12.786;2023-12-20T07:27:27;96204.72;;;5.46;100.00
50384;BME280;36301;48.310;12.786;2023-12-20T07:29:54;96216.31;;;5.45;100.00
50384;BME280;36301;48.310;12.786;2023-12-20T07:32:20;96226.28;;;5.52;100.00
50384;BME280;36301;48.310;12.786;2023-12-20T07:34:47;96215.06;;;5.64;100.00
50384;BME280;36301;48.310;12.786;2023-12-20T07:37:14;96229.16;;;5.59;100.00
50384;BME280;36301;48.310;12.786;2023-12-20T07:39:41;96239.19;;;5.45;100.00
50384;BME280;36301;48.310;12.786;2023-12-20T07:42:08;96242.28;;;5.59;100.00
50384;BME280;36301;48.310;12.786;2023-12-20T07:44:35;96229.72;;;5.65;100.00
50384;BME280;36301;48.310;12.786;2023-12-20T07:47:05;96248.88;;;5.65;100.00
50384;BME280;36301;48.310;12.786;2023-12-20T07:49:32;96243.81;;;5.60;100.00
50384;BME280;36301;48.310;12.786;2023-12-20T07:51:58;96251.28;;;5.58;100.00
50384;BME280;36301;48.310;12.786;2023-12-20T07:54:25;96253.00;;;5.66;100.00
50384;BME280;36301;48.310;12.786;2023-12-20T07:56:52;96260.59;;;5.68;100.00
50384;BME280;36301;48.310;12.786;2023-12-20T07:59:18;96247.34;;;5.64;100.00
50384;BME280;36301;48.310;12.786;2023-12-20T08:01:57;96249.50;;;5.62;100.00
50384;BME280;36301;48.310;12.786;2023-12-20T08:04:24;96240.84;;;5.50;100.00
50384;BME280;36301;48.310;12.786;2023-12-20T08:06:51;96252.34;;;5.57;100.00
50384;BME280;36301;48.310;12.786;2023-12-20T08:09:18;96247.75;;;5.54;100.00
50384;BME280;36301;48.310;12.786;2023-12-20T08:11:46;96245.97;;;5.46;100.00
50384;BME280;36301;48.310;12.786;2023-12-20T08:14:13;96247.97;;;5.61;100.00
50384;BME280;36301;48.310;12.786;2023-12-20T08:16:41;96238.72;;;5.31;100.00
50384;BME280;36301;48.310;12.786;2023-12-20T08:19:07;96255.97;;;5.53;100.00
50384;BME280;36301;48.310;12.786;2023-12-20T08:21:34;96256.59;;;5.50;100.00
50384;BME280;36301;48.310;12.786;2023-12-20T08:24:04;96264.81;;;5.60;100.00
50384;BME280;36301;48.310;12.786;2023-12-20T08:26:31;96256.19;;;5.72;100.00
50384;BME280;36301;48.310;12.786;2023-12-20T08:28:57;96244.25;;;5.62;100.00
50384;BME280;36301;48.310;12.786;2023-12-20T08:31:27;96238.34;;;5.20;100.00
50384;BME280;36301;48.310;12.786;2023-12-20T08:33:54;96256.03;;;5.44;100.00
50384;BME280;36301;48.310;12.786;2023-12-20T08:36:21;96260.13;;;5.54;100.00
50384;BME280;36301;48.310;12.786;2023-12-20T08:38:49;96270.09;;;5.60;100.00
50384;BME280;36301;48.310;12.786;2023-12-20T08:41:17;96274.81;;;5.79;100.00
50384;BME280;36301;48.310;12.786;2023-12-20T08:43:44;96263.97;;;5.68;100.00
50384;BME280;36301;48.310;12.786;2023-12-20T08:46:10;96279.28;;;5.66;100.00
50384;BME280;36301;48.310;12.786;2023-12-20T08:48:38;96275.13;;;5.65;100.00
50384;BME280;36301;48.310;12.786;2023-12-20T08:51:05;96274.50;;;5.68;100.00
50384;BME280;36301;48.310;12.786;2023-12-20T08:53:34;96272.84;;;5.64;100.00
50384;BME280;36301;48.310;12.786;2023-12-20T08:56:01;96277.16;;;5.93;100.00
50384;BME280;36301;48.310;12.786;2023-12-20T08:58:28;96265.88;;;5.92;100.00
50384;BME280;36301;48.310;12.786;2023-12-20T09:00:55;96277.41;;;6.00;100.00
50384;BME280;36301;48.310;12.786;2023-12-20T09:03:24;96268.13;;;5.69;100.00
50384;BME280;36301;48.310;12.786;2023-12-20T09:05:50;96281.81;;;5.75;100.00
50384;BME280;36301;48.310;12.786;2023-12-20T09:08:17;96273.72;;;5.68;100.00
50384;BME280;36301;48.310;12.786;2023-12-20T09:10:44;96276.03;;;5.82;100.00
50384;BME280;36301;48.310;12.786;2023-12-20T09:13:11;96269.28;;;5.93;100.00
50384;BME280;36301;48.310;12.786;2023-12-20T09:15:38;96275.31;;;5.93;100.00
50384;BME280;36301;48.310;12.786;2023-12-20T09:18:05;96276.84;;;5.94;100.00
50384;BME280;36301;48.310;12.786;2023-12-20T09:20:32;96272.03;;;5.51;100.00
50384;BME280;36301;48.310;12.786;2023-12-20T09:22:59;96282.88;;;5.62;100.00
50384;BME280;36301;48.310;12.786;2023-12-20T09:25:26;96286.66;;;5.73;100.00
50384;BME280;36301;48.310;12.786;2023-12-20T09:27:53;96277.06;;;6.02;100.00
50384;BME280;36301;48.310;12.786;2023-12-20T09:30:20;96280.97;;;5.83;100.00
50384;BME280;36301;48.310;12.786;2023-12-20T09:32:54;96270.81;;;5.94;100.00
50384;BME280;36301;48.310;12.786;2023-12-20T09:35:21;96282.03;;;5.70;100.00
50384;BME280;36301;48.310;12.786;2023-12-20T09:37:48;96286.75;;;5.77;100.00
50384;BME280;36301;48.310;12.786;2023-12-20T09:40:18;96269.50;;;6.12;100.00
50384;BME280;36301;48.310;12.786;2023-12-20T09:42:56;96268.88;;;5.58;100.00
50384;BME280;36301;48.310;12.786;2023-12-20T09:45:24;96251.13;;;5.55;100.00
50384;BME280;36301;48.310;12.786;2023-12-20T09:47:53;96273.13;;;5.62;100.00
50384;BME280;36301;48.310;12.786;2023-12-20T09:50:21;96270.09;;;5.72;100.00
50384;BME280;36301;48.310;12.786;2023-12-20T09:52:52;96267.78;;;5.59;100.00
50384;BME280;36301;48.310;12.786;2023-12-20T09:55:19;96260.84;;;5.42;100.00
50384;BME280;36301;48.310;12.786;2023-12-20T09:57:47;96267.88;;;5.50;100.00
50384;BME280;36301;48.310;12.786;2023-12-20T10:00:15;96240.72;;;5.46;100.00
50384;BME280;36301;48.310;12.786;2023-12-20T10:02:46;96269.66;;;5.58;100.00
50384;BME280;36301;48.310;12.786;2023-12-20T10:05:17;96278.19;;;5.67;100.00
50384;BME280;36301;48.310;12.786;2023-12-20T10:07:47;96270.63;;;5.66;100.00
50384;BME280;36301;48.310;12.786;2023-12-20T10:10:15;96275.25;;;5.69;100.00
50384;BME280;36301;48.310;12.786;2023-12-20T10:13:10;96270.63;;;5.99;100.00
50384;BME280;36301;48.310;12.786;2023-12-20T10:15:37;96263.00;;;5.85;100.00
50384;BME280;36301;48.310;12.786;2023-12-20T10:18:04;96259.97;;;5.95;100.00
50384;BME280;36301;48.310;12.786;2023-12-20T10:20:32;96235.63;;;5.74;100.00
50384;BME280;36301;48.310;12.786;2023-12-20T10:23:00;96241.56;;;5.83;100.00
50384;BME280;36301;48.310;12.786;2023-12-20T10:25:27;96245.03;;;5.87;100.00
50384;BME280;36301;48.310;12.786;2023-12-20T10:28:14;96246.78;;;5.59;100.00
50384;BME280;36301;48.310;12.786;2023-12-20T10:30:41;96244.97;;;5.84;100.00
50384;BME280;36301;48.310;12.786;2023-12-20T10:33:09;96239.03;;;5.87;100.00
50384;BME280;36301;48.310;12.786;2023-12-20T10:35:38;96243.34;;;5.91;100.00
50384;BME280;36301;48.310;12.786;2023-12-20T10:38:08;96232.88;;;5.83;100.00
50384;BME280;36301;48.310;12.786;2023-12-20T10:40:36;96227.00;;;5.86;100.00
50384;BME280;36301;48.310;12.786;2023-12-20T10:43:04;96234.75;;;5.70;100.00
50384;BME280;36301;48.310;12.786;2023-12-20T10:45:31;96219.25;;;6.02;100.00
50384;BME280;36301;48.310;12.786;2023-12-20T10:47:59;96221.88;;;6.26;100.00
50384;BME280;36301;48.310;12.786;2023-12-20T10:50:27;96219.78;;;6.07;100.00
50384;BME280;36301;48.310;12.786;2023-12-20T10:52:58;96222.97;;;6.01;100.00
50384;BME280;36301;48.310;12.786;2023-12-20T10:55:25;96224.16;;;6.03;100.00
50384;BME280;36301;48.310;12.786;2023-12-20T10:58:09;96235.44;;;6.28;100.00
50384;BME280;36301;48.310;12.786;2023-12-20T11:00:40;96235.13;;;6.17;100.00
50384;BME280;36301;48.310;12.786;2023-12-20T11:03:09;96230.00;;;6.09;100.00
50384;BME280;36301;48.310;12.786;2023-12-20T11:05:49;96231.28;;;6.39;100.00
50384;BME280;36301;48.310;12.786;2023-12-20T11:11:34;96219.66;;;6.40;100.00
50384;BME280;36301;48.310;12.786;2023-12-20T11:14:07;96218.44;;;6.38;100.00
50384;BME280;36301;48.310;12.786;2023-12-20T11:16:37;96223.94;;;6.33;100.00
50384;BME280;36301;48.310;12.786;2023-12-20T11:19:17;96218.84;;;6.52;100.00
50384;BME280;36301;48.310;12.786;2023-12-20T11:21:45;96207.50;;;6.36;100.00
50384;BME280;36301;48.310;12.786;2023-12-20T11:24:13;96209.06;;;6.24;100.00
50384;BME280;36301;48.310;12.786;2023-12-20T11:26:46;96193.34;;;6.40;100.00
50384;BME280;36301;48.310;12.786;2023-12-20T11:32:03;96207.91;;;6.50;100.00
50384;BME280;36301;48.310;12.786;2023-12-20T11:34:32;96199.50;;;6.72;100.00
50384;BME280;36301;48.310;12.786;2023-12-20T11:37:00;96208.91;;;6.86;100.00
50384;BME280;36301;48.310;12.786;2023-12-20T11:39:28;96204.78;;;7.00;100.00
50384;BME280;36301;48.310;12.786;2023-12-20T11:41:57;96191.19;;;6.98;100.00
50384;BME280;36301;48.310;12.786;2023-12-20T11:44:25;96196.75;;;6.81;100.00
50384;BME280;36301;48.310;12.786;2023-12-20T11:46:52;96195.78;;;6.73;100.00
50384;BME280;36301;48.310;12.786;2023-12-20T11:49:23;96203.13;;;6.68;100.00
50384;BME280;36301;48.310;12.786;2023-12-20T11:51:50;96194.31;;;6.48;100.00
50384;BME280;36301;48.310;12.786;2023-12-20T11:54:18;96205.25;;;6.62;100.00
50384;BME280;36301;48.310;12.786;2023-12-20T11:56:45;96188.56;;;6.70;100.00
50384;BME280;36301;48.310;12.786;2023-12-20T11:59:12;96187.41;;;6.43;100.00
50384;BME280;36301;48.310;12.786;2023-12-20T12:01:50;96170.84;;;6.55;100.00
50384;BME280;36301;48.310;12.786;2023-12-20T12:04:17;96169.16;;;6.75;100.00
50384;BME280;36301;48.310;12.786;2023-12-20T12:06:45;96174.44;;;6.63;100.00
50384;BME280;36301;48.310;12.786;2023-12-20T12:09:12;96178.53;;;6.48;100.00
50384;BME280;36301;48.310;12.786;2023-12-20T12:11:40;96169.13;;;6.47;100.00
50384;BME280;36301;48.310;12.786;2023-12-20T12:14:07;96182.50;;;6.42;100.00
50384;BME280;36301;48.310;12.786;2023-12-20T12:16:34;96168.31;;;6.59;100.00
50384;BME280;36301;48.310;12.786;2023-12-20T12:19:00;96175.59;;;6.78;100.00
50384;BME280;36301;48.310;12.786;2023-12-20T12:21:28;96167.66;;;6.90;100.00
50384;BME280;36301;48.310;12.786;2023-12-20T12:24:09;96171.16;;;6.66;100.00
50384;BME280;36301;48.310;12.786;2023-12-20T12:26:36;96171.38;;;6.61;100.00
50384;BME280;36301;48.310;12.786;2023-12-20T12:29:03;96163.91;;;6.63;100.00
50384;BME280;36301;48.310;12.786;2023-12-20T12:31:30;96150.56;;;6.84;100.00
50384;BME280;36301;48.310;12.786;2023-12-20T12:33:57;96166.03;;;6.85;100.00
50384;BME280;36301;48.310;12.786;2023-12-20T12:36:24;96163.63;;;7.24;100.00
50384;BME280;36301;48.310;12.786;2023-12-20T12:38:51;96165.75;;;7.18;100.00
50384;BME280;36301;48.310;12.786;2023-12-20T12:41:18;96158.69;;;7.07;100.00
50384;BME280;36301;48.310;12.786;2023-12-20T12:43:44;96158.09;;;7.13;100.00
50384;BME280;36301;48.310;12.786;2023-12-20T12:46:11;96159.19;;;7.12;100.00
50384;BME280;36301;48.310;12.786;2023-12-20T12:48:38;96161.50;;;7.29;100.00
50384;BME280;36301;48.310;12.786;2023-12-20T12:51:08;96165.09;;;7.37;100.00
50384;BME280;36301;48.310;12.786;2023-12-20T12:53:40;96148.94;;;7.23;100.00
50384;BME280;36301;48.310;12.786;2023-12-20T12:56:07;96145.38;;;7.47;100.00
50384;BME280;36301;48.310;12.786;2023-12-20T12:58:34;96148.69;;;7.44;100.00
50384;BME280;36301;48.310;12.786;2023-12-20T13:01:01;96147.75;;;7.52;100.00